Geraldton, Canada
Current Conditions -  °F | °C
As of 7:00 AM on Thursday 23 Oct 2014 (Local Time) from CYGQ Reporting Station
Broken Clouds Broken Clouds  
Wind Chill: 36°   Ceiling: 22000
Heat Index: 39°   Visibility: 15mi
Dew Point: 37°   Wind: 5mph
Humidity: 93%   Direction: 190°S
Pressure: 30.04"   Gusts: NA
Location:  49.72°N, 86.95°W
Report Text: CYGQ 231100Z 19004KT 15SM SCT030 BKN220 04/03 A3004 RMK SC3CI2SLP186
Loading
Personal Weather Stations






























Interactive Weather Map
Tropical Storm Tracking
New forecast layout! Learn more

10-Day Weather Forecast

Advertisements
Track Severe Weather on mobile